Strona główna
METAR-TAF:

METAR-TAF

Lotnisko :

Crawfordsville, Indiana, Stany Zjednoczone

Szerokość geograficzna: 39-58-34N, Długość geograficzna: 086-55-09W, wysokość: 244 m

Aktualna obserwacja pogody

Raport powstał 11 minut temu, godzina 13:55 UTC
Cisza
Temperatura -6°C
Wilgotność 86%
Ciśnienie 1019 hPa
Widzialność: 16.1 km
bezchmurnie

METAR: KCFJ 151355Z AUTO 00000KT 10SM CLR M06/M08 A3009 RMK AO2 T10611085

czas: 09:06 (14:06 UTC)


TAF: brakujący

Obserwacja i prognoza pogody dla ponad 4000 lotnisk (raport METAR i TAF).

Dostępne stacje oznaczono żółtymi i czerwonymi punktami na mapie.

Najedź kursorem aby zobaczyć nazwę stacji.

Kliknij aby zobaczyć obserwacje i prognozy pogody.

Aby zmienić mapę: kliknij na zielony przycisk z czarnym krzyżykiem, aby powiększyć; na zielony przycisk z myślnikiem, aby pomniejszyć; na zielone strzałki, aby przejść do map sąsiednich.


METAR-TAF: